sensor_id;sensor_type;location;lat;lon;timestamp;pressure;altitude;pressure_sealevel;temperature;humidity
61571;BME280;47463;49.884;10.010;2023-05-03T00:00:01;102850;;;6.6;78
61571;BME280;47463;49.884;10.010;2023-05-03T00:05:01;102840.00000000001;;;6.5;78
61571;BME280;47463;49.884;10.010;2023-05-03T00:10:01;102850;;;6.5;78
61571;BME280;47463;49.884;10.010;2023-05-03T00:15:01;102859.99999999999;;;6.4;78
61571;BME280;47463;49.884;10.010;2023-05-03T00:20:01;102870;;;6.3;79
61571;BME280;47463;49.884;10.010;2023-05-03T00:25:01;102870;;;6.2;79
61571;BME280;47463;49.884;10.010;2023-05-03T00:30:01;102870;;;6.2;79
61571;BME280;47463;49.884;10.010;2023-05-03T00:35:01;102870;;;6.3;79
61571;BME280;47463;49.884;10.010;2023-05-03T00:40:01;102870;;;6.4;79
61571;BME280;47463;49.884;10.010;2023-05-03T00:45:01;102870;;;6.4;78
61571;BME280;47463;49.884;10.010;2023-05-03T00:50:01;102859.99999999999;;;6.3;78
61571;BME280;47463;49.884;10.010;2023-05-03T00:55:01;102859.99999999999;;;6.3;78
61571;BME280;47463;49.884;10.010;2023-05-03T01:00:01;102859.99999999999;;;6.2;78
61571;BME280;47463;49.884;10.010;2023-05-03T01:05:01;102850;;;6.2;77
61571;BME280;47463;49.884;10.010;2023-05-03T01:10:03;102840.00000000001;;;6.2;76
61571;BME280;47463;49.884;10.010;2023-05-03T01:15:02;102850;;;6.2;76
61571;BME280;47463;49.884;10.010;2023-05-03T01:20:03;102840.00000000001;;;6.3;76
61571;BME280;47463;49.884;10.010;2023-05-03T01:25:03;102850;;;6.3;75
61571;BME280;47463;49.884;10.010;2023-05-03T01:30:02;102850;;;6.2;76
61571;BME280;47463;49.884;10.010;2023-05-03T01:35:03;102840.00000000001;;;6.2;76
61571;BME280;47463;49.884;10.010;2023-05-03T01:40:02;102840.00000000001;;;6.2;76
61571;BME280;47463;49.884;10.010;2023-05-03T01:45:01;102850;;;6.1;76
61571;BME280;47463;49.884;10.010;2023-05-03T01:50:01;102850;;;6.1;76
61571;BME280;47463;49.884;10.010;2023-05-03T01:55:01;102840.00000000001;;;6.1;76
61571;BME280;47463;49.884;10.010;2023-05-03T02:00:01;102840.00000000001;;;6.1;76
61571;BME280;47463;49.884;10.010;2023-05-03T02:05:01;102840.00000000001;;;6;77
61571;BME280;47463;49.884;10.010;2023-05-03T02:10:01;102840.00000000001;;;6;77
61571;BME280;47463;49.884;10.010;2023-05-03T02:15:01;102840.00000000001;;;5.9;78
61571;BME280;47463;49.884;10.010;2023-05-03T02:20:01;102840.00000000001;;;5.9;78
61571;BME280;47463;49.884;10.010;2023-05-03T02:25:01;102850;;;5.9;78
61571;BME280;47463;49.884;10.010;2023-05-03T02:30:01;102850;;;5.8;77
61571;BME280;47463;49.884;10.010;2023-05-03T02:35:01;102850;;;5.8;77
61571;BME280;47463;49.884;10.010;2023-05-03T02:40:01;102840.00000000001;;;5.8;77
61571;BME280;47463;49.884;10.010;2023-05-03T02:45:01;102850;;;5.8;76
61571;BME280;47463;49.884;10.010;2023-05-03T02:50:01;102870;;;5.8;75
61571;BME280;47463;49.884;10.010;2023-05-03T02:55:01;102859.99999999999;;;5.8;75
61571;BME280;47463;49.884;10.010;2023-05-03T03:00:01;102859.99999999999;;;5.7;75
61571;BME280;47463;49.884;10.010;2023-05-03T03:05:01;102859.99999999999;;;5.6;75
61571;BME280;47463;49.884;10.010;2023-05-03T03:10:01;102859.99999999999;;;5.6;75
61571;BME280;47463;49.884;10.010;2023-05-03T03:15:01;102859.99999999999;;;5.6;75
61571;BME280;47463;49.884;10.010;2023-05-03T03:20:01;102859.99999999999;;;5.6;75
61571;BME280;47463;49.884;10.010;2023-05-03T03:25:01;102859.99999999999;;;5.6;75
61571;BME280;47463;49.884;10.010;2023-05-03T03:30:01;102870;;;5.6;75
61571;BME280;47463;49.884;10.010;2023-05-03T03:35:01;102870;;;5.5;76
61571;BME280;47463;49.884;10.010;2023-05-03T03:40:01;102870;;;5.4;77
61571;BME280;47463;49.884;10.010;2023-05-03T03:45:01;102870;;;5.3;77
61571;BME280;47463;49.884;10.010;2023-05-03T03:50:01;102870;;;5.1;77
61571;BME280;47463;49.884;10.010;2023-05-03T03:55:01;102880;;;5;77
61571;BME280;47463;49.884;10.010;2023-05-03T04:00:01;102870;;;4.9;76
61571;BME280;47463;49.884;10.010;2023-05-03T04:05:01;102880;;;4.8;76
61571;BME280;47463;49.884;10.010;2023-05-03T04:10:01;102890.00000000001;;;4.7;76
61571;BME280;47463;49.884;10.010;2023-05-03T04:15:01;102890.00000000001;;;4.7;76
61571;BME280;47463;49.884;10.010;2023-05-03T04:20:01;102900;;;4.7;75
61571;BME280;47463;49.884;10.010;2023-05-03T04:25:01;102900;;;4.7;76
61571;BME280;47463;49.884;10.010;2023-05-03T04:30:01;102900;;;4.7;75
61571;BME280;47463;49.884;10.010;2023-05-03T04:35:01;102909.99999999999;;;4.7;75
61571;BME280;47463;49.884;10.010;2023-05-03T04:40:01;102900;;;4.7;75
61571;BME280;47463;49.884;10.010;2023-05-03T04:45:01;102909.99999999999;;;4.7;75
61571;BME280;47463;49.884;10.010;2023-05-03T04:50:01;102920;;;4.8;75
61571;BME280;47463;49.884;10.010;2023-05-03T04:55:01;102920;;;4.9;74
61571;BME280;47463;49.884;10.010;2023-05-03T05:00:01;102920;;;5;74
61571;BME280;47463;49.884;10.010;2023-05-03T05:05:01;102920;;;5.1;74
61571;BME280;47463;49.884;10.010;2023-05-03T05:10:01;102930;;;5.2;74
61571;BME280;47463;49.884;10.010;2023-05-03T05:15:01;102930;;;5.3;73
61571;BME280;47463;49.884;10.010;2023-05-03T05:20:01;102940.00000000001;;;5.4;73
61571;BME280;47463;49.884;10.010;2023-05-03T05:25:01;102940.00000000001;;;5.5;73
61571;BME280;47463;49.884;10.010;2023-05-03T05:30:01;102950;;;5.5;73
61571;BME280;47463;49.884;10.010;2023-05-03T05:35:01;102940.00000000001;;;5.5;73
61571;BME280;47463;49.884;10.010;2023-05-03T05:40:01;102950;;;5.6;73
61571;BME280;47463;49.884;10.010;2023-05-03T05:45:01;102950;;;5.6;73
61571;BME280;47463;49.884;10.010;2023-05-03T05:50:01;102959.99999999999;;;5.7;73
61571;BME280;47463;49.884;10.010;2023-05-03T05:55:01;102959.99999999999;;;5.8;73
61571;BME280;47463;49.884;10.010;2023-05-03T06:00:01;102959.99999999999;;;5.9;73
61571;BME280;47463;49.884;10.010;2023-05-03T06:05:01;102959.99999999999;;;6;72
61571;BME280;47463;49.884;10.010;2023-05-03T06:10:01;102950;;;6.1;72
61571;BME280;47463;49.884;10.010;2023-05-03T06:15:01;102959.99999999999;;;6.2;72
61571;BME280;47463;49.884;10.010;2023-05-03T06:20:01;102970;;;6.3;72
61571;BME280;47463;49.884;10.010;2023-05-03T06:25:01;102959.99999999999;;;6.4;72
61571;BME280;47463;49.884;10.010;2023-05-03T06:30:01;102959.99999999999;;;6.5;72
61571;BME280;47463;49.884;10.010;2023-05-03T06:35:01;102970;;;6.5;71
61571;BME280;47463;49.884;10.010;2023-05-03T06:40:01;102970;;;6.6;71
61571;BME280;47463;49.884;10.010;2023-05-03T06:45:01;102970;;;6.7;71
61571;BME280;47463;49.884;10.010;2023-05-03T06:50:01;102970;;;6.9;71
61571;BME280;47463;49.884;10.010;2023-05-03T06:55:01;102959.99999999999;;;7.1;70
61571;BME280;47463;49.884;10.010;2023-05-03T07:00:01;102959.99999999999;;;7.2;70
61571;BME280;47463;49.884;10.010;2023-05-03T07:05:01;102959.99999999999;;;7.4;70
61571;BME280;47463;49.884;10.010;2023-05-03T07:10:01;102950;;;7.8;70
61571;BME280;47463;49.884;10.010;2023-05-03T07:15:01;102950;;;7.9;68
61571;BME280;47463;49.884;10.010;2023-05-03T07:20:01;102950;;;8;68
61571;BME280;47463;49.884;10.010;2023-05-03T07:25:01;102940.00000000001;;;8.8;67
61571;BME280;47463;49.884;10.010;2023-05-03T07:30:01;102930;;;8.8;66
61571;BME280;47463;49.884;10.010;2023-05-03T07:35:01;102940.00000000001;;;9.1;65
61571;BME280;47463;49.884;10.010;2023-05-03T07:40:01;102920;;;9.3;65
61571;BME280;47463;49.884;10.010;2023-05-03T07:45:01;102920;;;9.2;64
61571;BME280;47463;49.884;10.010;2023-05-03T07:50:01;102909.99999999999;;;9.3;65
61571;BME280;47463;49.884;10.010;2023-05-03T07:55:01;102909.99999999999;;;9.5;63
61571;BME280;47463;49.884;10.010;2023-05-03T08:00:01;102909.99999999999;;;9.7;63
61571;BME280;47463;49.884;10.010;2023-05-03T08:05:01;102909.99999999999;;;10;62
61571;BME280;47463;49.884;10.010;2023-05-03T08:10:01;102909.99999999999;;;9.8;62
61571;BME280;47463;49.884;10.010;2023-05-03T08:15:01;102909.99999999999;;;10.1;62
61571;BME280;47463;49.884;10.010;2023-05-03T08:20:01;102900;;;10.7;61
61571;BME280;47463;49.884;10.010;2023-05-03T08:25:01;102900;;;10.4;61
61571;BME280;47463;49.884;10.010;2023-05-03T08:30:01;102900;;;11;60
61571;BME280;47463;49.884;10.010;2023-05-03T08:35:01;102900;;;10.6;60
61571;BME280;47463;49.884;10.010;2023-05-03T08:40:01;102900;;;10.9;60
61571;BME280;47463;49.884;10.010;2023-05-03T08:45:01;102900;;;11.1;60
61571;BME280;47463;49.884;10.010;2023-05-03T08:50:02;102890.00000000001;;;10.8;59
61571;BME280;47463;49.884;10.010;2023-05-03T08:55:01;102880;;;11.1;59
61571;BME280;47463;49.884;10.010;2023-05-03T09:00:01;102880;;;11.4;59
61571;BME280;47463;49.884;10.010;2023-05-03T09:05:01;102880;;;11.2;58
61571;BME280;47463;49.884;10.010;2023-05-03T09:10:01;102880;;;11.4;58
61571;BME280;47463;49.884;10.010;2023-05-03T09:15:01;102870;;;11.1;58
61571;BME280;47463;49.884;10.010;2023-05-03T09:20:01;102880;;;11.6;58
61571;BME280;47463;49.884;10.010;2023-05-03T09:25:01;102880;;;11.7;58
61571;BME280;47463;49.884;10.010;2023-05-03T09:30:15;102870;;;12.2;56
61571;BME280;47463;49.884;10.010;2023-05-03T09:35:07;102870;;;12.1;56
61571;BME280;47463;49.884;10.010;2023-05-03T09:40:04;102870;;;12;56
61571;BME280;47463;49.884;10.010;2023-05-03T09:45:01;102859.99999999999;;;12.2;56
61571;BME280;47463;49.884;10.010;2023-05-03T09:50:01;102850;;;12.6;55
61571;BME280;47463;49.884;10.010;2023-05-03T09:55:01;102850;;;12.9;55
61571;BME280;47463;49.884;10.010;2023-05-03T10:00:01;102850;;;12.6;54
61571;BME280;47463;49.884;10.010;2023-05-03T10:05:01;102840.00000000001;;;12.8;54
61571;BME280;47463;49.884;10.010;2023-05-03T10:10:01;102850;;;13.2;54
61571;BME280;47463;49.884;10.010;2023-05-03T10:15:01;102840.00000000001;;;13;54
61571;BME280;47463;49.884;10.010;2023-05-03T10:20:01;102840.00000000001;;;12.9;54
61571;BME280;47463;49.884;10.010;2023-05-03T10:25:08;102840.00000000001;;;12.9;53
61571;BME280;47463;49.884;10.010;2023-05-03T10:30:01;102820;;;13.2;54
61571;BME280;47463;49.884;10.010;2023-05-03T10:35:02;102809.99999999999;;;13.5;53
61571;BME280;47463;49.884;10.010;2023-05-03T10:40:04;102800;;;13.8;53
61571;BME280;47463;49.884;10.010;2023-05-03T10:45:01;102800;;;14;51
61571;BME280;47463;49.884;10.010;2023-05-03T10:50:32;102809.99999999999;;;13.7;51
61571;BME280;47463;49.884;10.010;2023-05-03T10:55:01;102809.99999999999;;;13.5;52
61571;BME280;47463;49.884;10.010;2023-05-03T11:00:01;102800;;;13.8;51
61571;BME280;47463;49.884;10.010;2023-05-03T11:05:01;102790.00000000001;;;13.7;51
61571;BME280;47463;49.884;10.010;2023-05-03T11:10:14;102780;;;13.8;50
61571;BME280;47463;49.884;10.010;2023-05-03T11:15:01;102780;;;13.5;51
61571;BME280;47463;49.884;10.010;2023-05-03T11:20:01;102780;;;14.1;50
61571;BME280;47463;49.884;10.010;2023-05-03T11:25:01;102770;;;14;50
61571;BME280;47463;49.884;10.010;2023-05-03T11:30:01;102750;;;13.7;49
61571;BME280;47463;49.884;10.010;2023-05-03T11:35:01;102759.99999999999;;;13.9;49
61571;BME280;47463;49.884;10.010;2023-05-03T11:40:01;102740.00000000001;;;14.2;48
61571;BME280;47463;49.884;10.010;2023-05-03T11:45:01;102740.00000000001;;;14.2;47
61571;BME280;47463;49.884;10.010;2023-05-03T11:50:01;102730;;;14.2;46
61571;BME280;47463;49.884;10.010;2023-05-03T11:55:01;102730;;;14.4;46
61571;BME280;47463;49.884;10.010;2023-05-03T12:00:09;102730;;;15;46
61571;BME280;47463;49.884;10.010;2023-05-03T12:05:01;102720;;;15.1;45
61571;BME280;47463;49.884;10.010;2023-05-03T12:10:10;102709.99999999999;;;14.8;44
61571;BME280;47463;49.884;10.010;2023-05-03T12:15:01;102720;;;15;44
61571;BME280;47463;49.884;10.010;2023-05-03T12:20:16;102720;;;14.7;42
61571;BME280;47463;49.884;10.010;2023-05-03T12:25:01;102709.99999999999;;;14.7;43
61571;BME280;47463;49.884;10.010;2023-05-03T12:30:01;102700;;;15.2;43
61571;BME280;47463;49.884;10.010;2023-05-03T12:35:01;102709.99999999999;;;15.1;43
61571;BME280;47463;49.884;10.010;2023-05-03T12:40:01;102700;;;15.2;44
61571;BME280;47463;49.884;10.010;2023-05-03T12:45:01;102690.00000000001;;;15.1;43
61571;BME280;47463;49.884;10.010;2023-05-03T12:50:01;102690.00000000001;;;15.2;42
61571;BME280;47463;49.884;10.010;2023-05-03T12:55:01;102690.00000000001;;;15.6;41
61571;BME280;47463;49.884;10.010;2023-05-03T13:00:01;102690.00000000001;;;15.9;42
61571;BME280;47463;49.884;10.010;2023-05-03T13:05:01;102680;;;15.8;42
61571;BME280;47463;49.884;10.010;2023-05-03T13:10:01;102680;;;15.9;42
61571;BME280;47463;49.884;10.010;2023-05-03T13:15:01;102670;;;15.8;41
61571;BME280;47463;49.884;10.010;2023-05-03T13:20:01;102670;;;15.4;41
61571;BME280;47463;49.884;10.010;2023-05-03T13:25:01;102670;;;15.6;40
61571;BME280;47463;49.884;10.010;2023-05-03T13:30:01;102659.99999999999;;;15.6;39
61571;BME280;47463;49.884;10.010;2023-05-03T13:35:01;102650;;;16.1;39
61571;BME280;47463;49.884;10.010;2023-05-03T13:40:01;102659.99999999999;;;16;38
61571;BME280;47463;49.884;10.010;2023-05-03T13:45:01;102640.00000000001;;;15.8;38
61571;BME280;47463;49.884;10.010;2023-05-03T13:50:01;102640.00000000001;;;16;38
61571;BME280;47463;49.884;10.010;2023-05-03T13:55:01;102640.00000000001;;;16.5;38
61571;BME280;47463;49.884;10.010;2023-05-03T14:00:01;102630;;;16.1;37
61571;BME280;47463;49.884;10.010;2023-05-03T14:05:01;102620;;;16;40
61571;BME280;47463;49.884;10.010;2023-05-03T14:10:01;102609.99999999999;;;16.1;39
61571;BME280;47463;49.884;10.010;2023-05-03T14:15:01;102600;;;15.8;39
61571;BME280;47463;49.884;10.010;2023-05-03T14:20:01;102590.00000000001;;;16.3;39
61571;BME280;47463;49.884;10.010;2023-05-03T14:25:01;102590.00000000001;;;16.3;37
61571;BME280;47463;49.884;10.010;2023-05-03T14:30:01;102590.00000000001;;;16.5;36
61571;BME280;47463;49.884;10.010;2023-05-03T14:35:01;102590.00000000001;;;16.3;36
61571;BME280;47463;49.884;10.010;2023-05-03T14:40:01;102570;;;16.5;37
61571;BME280;47463;49.884;10.010;2023-05-03T14:45:01;102570;;;16.4;36
61571;BME280;47463;49.884;10.010;2023-05-03T14:50:01;102580;;;16.3;35
61571;BME280;47463;49.884;10.010;2023-05-03T14:55:01;102559.99999999999;;;16.4;35
61571;BME280;47463;49.884;10.010;2023-05-03T15:00:01;102570;;;16.5;35
61571;BME280;47463;49.884;10.010;2023-05-03T15:05:01;102570;;;16.7;36
61571;BME280;47463;49.884;10.010;2023-05-03T15:10:01;102570;;;16.9;35
61571;BME280;47463;49.884;10.010;2023-05-03T15:15:01;102570;;;16.5;36
61571;BME280;47463;49.884;10.010;2023-05-03T15:20:01;102570;;;17;35
61571;BME280;47463;49.884;10.010;2023-05-03T15:25:01;102559.99999999999;;;16.9;35
61571;BME280;47463;49.884;10.010;2023-05-03T15:30:01;102559.99999999999;;;16.5;35
61571;BME280;47463;49.884;10.010;2023-05-03T15:35:01;102559.99999999999;;;16.8;35
61571;BME280;47463;49.884;10.010;2023-05-03T15:40:01;102540.00000000001;;;17;34
61571;BME280;47463;49.884;10.010;2023-05-03T15:45:01;102540.00000000001;;;16.7;34
61571;BME280;47463;49.884;10.010;2023-05-03T15:50:01;102550;;;17.1;34
61571;BME280;47463;49.884;10.010;2023-05-03T15:55:01;102550;;;17.1;34
61571;BME280;47463;49.884;10.010;2023-05-03T16:00:01;102530;;;17;34
61571;BME280;47463;49.884;10.010;2023-05-03T16:05:01;102550;;;17.3;33
61571;BME280;47463;49.884;10.010;2023-05-03T16:10:01;102540.00000000001;;;17.1;35
61571;BME280;47463;49.884;10.010;2023-05-03T16:15:01;102540.00000000001;;;17;34
61571;BME280;47463;49.884;10.010;2023-05-03T16:20:01;102530;;;16.9;33
61571;BME280;47463;49.884;10.010;2023-05-03T16:25:01;102530;;;16.9;33
61571;BME280;47463;49.884;10.010;2023-05-03T16:30:01;102520;;;16.9;34
61571;BME280;47463;49.884;10.010;2023-05-03T16:35:01;102520;;;16.8;34
61571;BME280;47463;49.884;10.010;2023-05-03T16:40:01;102530;;;16.7;35
61571;BME280;47463;49.884;10.010;2023-05-03T16:45:01;102520;;;16.7;35
61571;BME280;47463;49.884;10.010;2023-05-03T16:50:01;102509.99999999999;;;16.7;35
61571;BME280;47463;49.884;10.010;2023-05-03T16:55:01;102509.99999999999;;;16.7;35
61571;BME280;47463;49.884;10.010;2023-05-03T17:00:01;102500;;;16.7;35
61571;BME280;47463;49.884;10.010;2023-05-03T17:05:01;102509.99999999999;;;16.6;36
61571;BME280;47463;49.884;10.010;2023-05-03T17:10:01;102509.99999999999;;;16.6;36
61571;BME280;47463;49.884;10.010;2023-05-03T17:15:01;102509.99999999999;;;16.5;37
61571;BME280;47463;49.884;10.010;2023-05-03T17:20:01;102500;;;16.4;37
61571;BME280;47463;49.884;10.010;2023-05-03T17:25:01;102490.00000000001;;;16.3;38
61571;BME280;47463;49.884;10.010;2023-05-03T17:30:01;102500;;;16.2;38
61571;BME280;47463;49.884;10.010;2023-05-03T17:35:01;102500;;;16;39
61571;BME280;47463;49.884;10.010;2023-05-03T17:40:01;102500;;;16;38
61571;BME280;47463;49.884;10.010;2023-05-03T17:45:01;102509.99999999999;;;16.1;39
61571;BME280;47463;49.884;10.010;2023-05-03T17:50:01;102520;;;16;40
61571;BME280;47463;49.884;10.010;2023-05-03T17:55:01;102509.99999999999;;;16;41
61571;BME280;47463;49.884;10.010;2023-05-03T18:00:01;102500;;;15.6;40
61571;BME280;47463;49.884;10.010;2023-05-03T18:05:01;102500;;;15.6;42
61571;BME280;47463;49.884;10.010;2023-05-03T18:10:01;102500;;;15.3;43
61571;BME280;47463;49.884;10.010;2023-05-03T18:15:01;102509.99999999999;;;15.1;44
61571;BME280;47463;49.884;10.010;2023-05-03T18:20:01;102500;;;14.7;44
61571;BME280;47463;49.884;10.010;2023-05-03T18:25:01;102500;;;14.4;45
61571;BME280;47463;49.884;10.010;2023-05-03T18:30:01;102500;;;14;47
61571;BME280;47463;49.884;10.010;2023-05-03T18:35:01;102520;;;13.7;47
61571;BME280;47463;49.884;10.010;2023-05-03T18:40:01;102509.99999999999;;;13.5;47
61571;BME280;47463;49.884;10.010;2023-05-03T18:45:01;102520;;;13.3;48
61571;BME280;47463;49.884;10.010;2023-05-03T18:50:01;102509.99999999999;;;13.1;48
61571;BME280;47463;49.884;10.010;2023-05-03T18:55:01;102520;;;13;48
61571;BME280;47463;49.884;10.010;2023-05-03T19:00:01;102520;;;12.7;49
61571;BME280;47463;49.884;10.010;2023-05-03T19:05:01;102520;;;12.4;49
61571;BME280;47463;49.884;10.010;2023-05-03T19:10:01;102520;;;12;51
61571;BME280;47463;49.884;10.010;2023-05-03T19:15:01;102530;;;11.7;52
61571;BME280;47463;49.884;10.010;2023-05-03T19:20:01;102540.00000000001;;;11.4;53
61571;BME280;47463;49.884;10.010;2023-05-03T19:25:01;102540.00000000001;;;11.2;53
61571;BME280;47463;49.884;10.010;2023-05-03T19:30:01;102540.00000000001;;;11.1;53
61571;BME280;47463;49.884;10.010;2023-05-03T19:35:01;102540.00000000001;;;11.2;52
61571;BME280;47463;49.884;10.010;2023-05-03T19:40:01;102540.00000000001;;;11.4;52
61571;BME280;47463;49.884;10.010;2023-05-03T19:45:01;102559.99999999999;;;11;53
61571;BME280;47463;49.884;10.010;2023-05-03T19:50:01;102550;;;11;53
61571;BME280;47463;49.884;10.010;2023-05-03T19:55:01;102540.00000000001;;;10.9;54
61571;BME280;47463;49.884;10.010;2023-05-03T20:00:01;102550;;;11.1;53
61571;BME280;47463;49.884;10.010;2023-05-03T20:05:01;102550;;;10.8;54
61571;BME280;47463;49.884;10.010;2023-05-03T20:10:01;102550;;;10.7;54
61571;BME280;47463;49.884;10.010;2023-05-03T20:15:01;102550;;;10.4;55
61571;BME280;47463;49.884;10.010;2023-05-03T20:20:04;102570;;;10.3;55
61571;BME280;47463;49.884;10.010;2023-05-03T20:25:01;102570;;;10.3;55
61571;BME280;47463;49.884;10.010;2023-05-03T20:30:01;102570;;;10.3;55
61571;BME280;47463;49.884;10.010;2023-05-03T20:35:01;102559.99999999999;;;10.5;55
61571;BME280;47463;49.884;10.010;2023-05-03T20:40:01;102559.99999999999;;;10.7;54
61571;BME280;47463;49.884;10.010;2023-05-03T20:45:01;102559.99999999999;;;10.7;54
61571;BME280;47463;49.884;10.010;2023-05-03T20:50:01;102559.99999999999;;;10.6;54
61571;BME280;47463;49.884;10.010;2023-05-03T20:55:01;102559.99999999999;;;10.6;54
61571;BME280;47463;49.884;10.010;2023-05-03T21:00:01;102570;;;10.5;54
61571;BME280;47463;49.884;10.010;2023-05-03T21:05:01;102559.99999999999;;;10.3;55
61571;BME280;47463;49.884;10.010;2023-05-03T21:10:01;102559.99999999999;;;10.2;55
61571;BME280;47463;49.884;10.010;2023-05-03T21:15:01;102559.99999999999;;;10.2;55
61571;BME280;47463;49.884;10.010;2023-05-03T21:20:01;102550;;;9.9;56
61571;BME280;47463;49.884;10.010;2023-05-03T21:25:01;102559.99999999999;;;9.9;56
61571;BME280;47463;49.884;10.010;2023-05-03T21:30:01;102550;;;9.8;56
61571;BME280;47463;49.884;10.010;2023-05-03T21:35:01;102550;;;9.7;56
61571;BME280;47463;49.884;10.010;2023-05-03T21:40:01;102550;;;9.8;56
61571;BME280;47463;49.884;10.010;2023-05-03T21:45:01;102559.99999999999;;;9.7;56
61571;BME280;47463;49.884;10.010;2023-05-03T21:50:01;102570;;;9.6;57
61571;BME280;47463;49.884;10.010;2023-05-03T21:55:01;102559.99999999999;;;9.6;57
61571;BME280;47463;49.884;10.010;2023-05-03T22:00:01;102559.99999999999;;;9.5;57
61571;BME280;47463;49.884;10.010;2023-05-03T22:05:01;102550;;;9.4;57
61571;BME280;47463;49.884;10.010;2023-05-03T22:10:01;102550;;;9.5;57
61571;BME280;47463;49.884;10.010;2023-05-03T22:15:01;102559.99999999999;;;9.5;57
61571;BME280;47463;49.884;10.010;2023-05-03T22:20:01;102550;;;9.4;58
61571;BME280;47463;49.884;10.010;2023-05-03T22:25:01;102559.99999999999;;;9.3;58
61571;BME280;47463;49.884;10.010;2023-05-03T22:30:01;102559.99999999999;;;9.3;58
61571;BME280;47463;49.884;10.010;2023-05-03T22:35:01;102559.99999999999;;;9.3;58
61571;BME280;47463;49.884;10.010;2023-05-03T22:40:01;102559.99999999999;;;9.3;59
61571;BME280;47463;49.884;10.010;2023-05-03T22:45:01;102559.99999999999;;;9.2;59
61571;BME280;47463;49.884;10.010;2023-05-03T22:50:01;102570;;;9.1;59
61571;BME280;47463;49.884;10.010;2023-05-03T22:55:01;102570;;;9;59
61571;BME280;47463;49.884;10.010;2023-05-03T23:00:01;102559.99999999999;;;8.8;60
61571;BME280;47463;49.884;10.010;2023-05-03T23:05:01;102559.99999999999;;;8.8;60
61571;BME280;47463;49.884;10.010;2023-05-03T23:10:01;102570;;;8.8;60
61571;BME280;47463;49.884;10.010;2023-05-03T23:15:01;102559.99999999999;;;8.6;61
61571;BME280;47463;49.884;10.010;2023-05-03T23:20:01;102550;;;8.6;61
61571;BME280;47463;49.884;10.010;2023-05-03T23:25:01;102570;;;8.5;61
61571;BME280;47463;49.884;10.010;2023-05-03T23:30:01;102559.99999999999;;;8.4;62
61571;BME280;47463;49.884;10.010;2023-05-03T23:35:01;102559.99999999999;;;8.3;62
61571;BME280;47463;49.884;10.010;2023-05-03T23:40:01;102559.99999999999;;;8.3;62
61571;BME280;47463;49.884;10.010;2023-05-03T23:45:01;102559.99999999999;;;8.2;62
61571;BME280;47463;49.884;10.010;2023-05-03T23:50:01;102559.99999999999;;;8.1;63
61571;BME280;47463;49.884;10.010;2023-05-03T23:55:01;102559.99999999999;;;8.1;63
